sensor_id;sensor_type;location;lat;lon;timestamp;P1;durP1;ratioP1;P2;durP2;ratioP2
72974;SDS011;61166;54.228;37.632;2023-04-25T00:00:45;15.95;;;7.45;;
72974;SDS011;61166;54.228;37.632;2023-04-25T00:03:12;11.90;;;5.33;;
72974;SDS011;61166;54.228;37.632;2023-04-25T00:05:39;13.50;;;6.65;;
72974;SDS011;61166;54.228;37.632;2023-04-25T00:08:05;13.07;;;7.03;;
72974;SDS011;61166;54.228;37.632;2023-04-25T00:10:32;16.92;;;7.40;;
72974;SDS011;61166;54.228;37.632;2023-04-25T00:12:58;10.60;;;4.97;;
72974;SDS011;61166;54.228;37.632;2023-04-25T00:15:25;14.50;;;7.07;;
72974;SDS011;61166;54.228;37.632;2023-04-25T00:17:51;18.27;;;8.10;;
72974;SDS011;61166;54.228;37.632;2023-04-25T00:20:18;17.23;;;8.50;;
72974;SDS011;61166;54.228;37.632;2023-04-25T00:22:44;15.80;;;7.32;;
72974;SDS011;61166;54.228;37.632;2023-04-25T00:25:11;18.10;;;7.50;;
72974;SDS011;61166;54.228;37.632;2023-04-25T00:27:37;16.70;;;6.43;;
72974;SDS011;61166;54.228;37.632;2023-04-25T00:30:04;16.77;;;8.75;;
72974;SDS011;61166;54.228;37.632;2023-04-25T00:32:30;15.02;;;7.45;;
72974;SDS011;61166;54.228;37.632;2023-04-25T00:34:57;13.88;;;7.20;;
72974;SDS011;61166;54.228;37.632;2023-04-25T00:37:23;16.13;;;8.38;;
72974;SDS011;61166;54.228;37.632;2023-04-25T00:39:50;4.83;;;2.20;;
72974;SDS011;61166;54.228;37.632;2023-04-25T00:42:17;22.77;;;8.43;;
72974;SDS011;61166;54.228;37.632;2023-04-25T00:44:43;16.85;;;8.13;;
72974;SDS011;61166;54.228;37.632;2023-04-25T00:47:11;6.63;;;3.05;;
72974;SDS011;61166;54.228;37.632;2023-04-25T00:49:37;15.75;;;7.68;;
72974;SDS011;61166;54.228;37.632;2023-04-25T00:52:04;18.50;;;7.47;;
72974;SDS011;61166;54.228;37.632;2023-04-25T00:54:30;19.15;;;8.00;;
72974;SDS011;61166;54.228;37.632;2023-04-25T00:56:57;19.58;;;9.02;;
72974;SDS011;61166;54.228;37.632;2023-04-25T00:59:23;14.77;;;8.25;;
72974;SDS011;61166;54.228;37.632;2023-04-25T01:01:50;16.42;;;7.97;;
72974;SDS011;61166;54.228;37.632;2023-04-25T01:04:16;17.47;;;8.00;;
72974;SDS011;61166;54.228;37.632;2023-04-25T01:06:43;20.60;;;8.77;;
72974;SDS011;61166;54.228;37.632;2023-04-25T01:09:10;15.73;;;8.52;;
72974;SDS011;61166;54.228;37.632;2023-04-25T01:11:36;15.43;;;8.48;;
72974;SDS011;61166;54.228;37.632;2023-04-25T01:14:02;16.92;;;8.65;;
72974;SDS011;61166;54.228;37.632;2023-04-25T01:16:29;21.60;;;8.80;;
72974;SDS011;61166;54.228;37.632;2023-04-25T01:18:55;18.15;;;8.30;;
72974;SDS011;61166;54.228;37.632;2023-04-25T01:21:22;16.75;;;8.57;;
72974;SDS011;61166;54.228;37.632;2023-04-25T01:23:48;16.40;;;7.78;;
72974;SDS011;61166;54.228;37.632;2023-04-25T01:26:15;19.98;;;8.73;;
72974;SDS011;61166;54.228;37.632;2023-04-25T01:28:42;19.60;;;8.60;;
72974;SDS011;61166;54.228;37.632;2023-04-25T01:31:09;18.45;;;9.48;;
72974;SDS011;61166;54.228;37.632;2023-04-25T01:33:35;18.15;;;8.70;;
72974;SDS011;61166;54.228;37.632;2023-04-25T01:36:02;17.58;;;8.25;;
72974;SDS011;61166;54.228;37.632;2023-04-25T01:38:28;18.70;;;8.48;;
72974;SDS011;61166;54.228;37.632;2023-04-25T01:40:55;16.83;;;9.53;;
72974;SDS011;61166;54.228;37.632;2023-04-25T01:43:22;19.92;;;9.27;;
72974;SDS011;61166;54.228;37.632;2023-04-25T01:45:49;18.63;;;8.60;;
72974;SDS011;61166;54.228;37.632;2023-04-25T01:48:16;17.85;;;8.93;;
72974;SDS011;61166;54.228;37.632;2023-04-25T01:50:42;17.33;;;8.38;;
72974;SDS011;61166;54.228;37.632;2023-04-25T01:53:09;18.70;;;9.30;;
72974;SDS011;61166;54.228;37.632;2023-04-25T01:55:36;16.33;;;8.50;;
72974;SDS011;61166;54.228;37.632;2023-04-25T01:58:02;18.45;;;8.10;;
72974;SDS011;61166;54.228;37.632;2023-04-25T02:00:29;12.43;;;5.88;;
72974;SDS011;61166;54.228;37.632;2023-04-25T02:02:59;16.23;;;6.97;;
72974;SDS011;61166;54.228;37.632;2023-04-25T02:05:25;15.07;;;7.27;;
72974;SDS011;61166;54.228;37.632;2023-04-25T02:07:52;11.63;;;4.80;;
72974;SDS011;61166;54.228;37.632;2023-04-25T02:10:18;14.55;;;6.78;;
72974;SDS011;61166;54.228;37.632;2023-04-25T02:12:45;14.55;;;7.10;;
72974;SDS011;61166;54.228;37.632;2023-04-25T02:15:11;18.42;;;8.55;;
72974;SDS011;61166;54.228;37.632;2023-04-25T02:17:37;16.90;;;7.13;;
72974;SDS011;61166;54.228;37.632;2023-04-25T02:20:04;13.05;;;5.97;;
72974;SDS011;61166;54.228;37.632;2023-04-25T02:22:30;17.80;;;7.60;;
72974;SDS011;61166;54.228;37.632;2023-04-25T02:24:57;12.20;;;6.55;;
72974;SDS011;61166;54.228;37.632;2023-04-25T02:27:23;18.95;;;7.97;;
72974;SDS011;61166;54.228;37.632;2023-04-25T02:29:49;12.73;;;7.30;;
72974;SDS011;61166;54.228;37.632;2023-04-25T02:32:16;15.93;;;8.18;;
72974;SDS011;61166;54.228;37.632;2023-04-25T02:34:42;14.35;;;8.52;;
72974;SDS011;61166;54.228;37.632;2023-04-25T02:37:09;15.35;;;8.48;;
72974;SDS011;61166;54.228;37.632;2023-04-25T02:39:35;13.73;;;8.90;;
72974;SDS011;61166;54.228;37.632;2023-04-25T02:42:01;14.40;;;8.13;;
72974;SDS011;61166;54.228;37.632;2023-04-25T02:44:28;11.27;;;8.02;;
72974;SDS011;61166;54.228;37.632;2023-04-25T02:46:54;13.93;;;8.75;;
72974;SDS011;61166;54.228;37.632;2023-04-25T02:49:21;15.60;;;8.85;;
72974;SDS011;61166;54.228;37.632;2023-04-25T02:51:47;13.45;;;9.70;;
72974;SDS011;61166;54.228;37.632;2023-04-25T02:54:14;10.77;;;8.20;;
72974;SDS011;61166;54.228;37.632;2023-04-25T02:56:40;15.90;;;9.77;;
72974;SDS011;61166;54.228;37.632;2023-04-25T02:59:06;13.13;;;9.40;;
72974;SDS011;61166;54.228;37.632;2023-04-25T03:01:33;15.15;;;9.05;;
72974;SDS011;61166;54.228;37.632;2023-04-25T03:03:59;16.38;;;9.55;;
72974;SDS011;61166;54.228;37.632;2023-04-25T03:06:25;15.80;;;10.03;;
72974;SDS011;61166;54.228;37.632;2023-04-25T03:08:52;14.88;;;9.63;;
72974;SDS011;61166;54.228;37.632;2023-04-25T03:11:18;14.82;;;10.48;;
72974;SDS011;61166;54.228;37.632;2023-04-25T03:13:45;13.65;;;11.35;;
72974;SDS011;61166;54.228;37.632;2023-04-25T03:16:11;16.10;;;10.32;;
72974;SDS011;61166;54.228;37.632;2023-04-25T03:18:38;13.33;;;11.03;;
72974;SDS011;61166;54.228;37.632;2023-04-25T03:21:04;13.98;;;10.85;;
72974;SDS011;61166;54.228;37.632;2023-04-25T03:23:31;15.20;;;10.88;;
72974;SDS011;61166;54.228;37.632;2023-04-25T03:25:57;14.55;;;11.93;;
72974;SDS011;61166;54.228;37.632;2023-04-25T03:28:23;14.82;;;12.00;;
72974;SDS011;61166;54.228;37.632;2023-04-25T03:30:50;12.83;;;11.53;;
72974;SDS011;61166;54.228;37.632;2023-04-25T03:33:16;15.20;;;13.63;;
72974;SDS011;61166;54.228;37.632;2023-04-25T03:35:42;18.98;;;14.05;;
72974;SDS011;61166;54.228;37.632;2023-04-25T03:38:09;14.65;;;13.15;;
72974;SDS011;61166;54.228;37.632;2023-04-25T03:40:35;17.50;;;15.75;;
72974;SDS011;61166;54.228;37.632;2023-04-25T03:43:02;15.47;;;13.87;;
72974;SDS011;61166;54.228;37.632;2023-04-25T03:45:28;14.90;;;13.38;;
72974;SDS011;61166;54.228;37.632;2023-04-25T03:47:54;18.38;;;13.93;;
72974;SDS011;61166;54.228;37.632;2023-04-25T03:50:21;19.23;;;14.13;;
72974;SDS011;61166;54.228;37.632;2023-04-25T03:52:48;15.52;;;13.93;;
72974;SDS011;61166;54.228;37.632;2023-04-25T03:55:15;15.67;;;13.57;;
72974;SDS011;61166;54.228;37.632;2023-04-25T03:57:42;18.60;;;16.60;;
72974;SDS011;61166;54.228;37.632;2023-04-25T04:00:08;17.52;;;15.18;;
72974;SDS011;61166;54.228;37.632;2023-04-25T04:02:35;17.63;;;14.52;;
72974;SDS011;61166;54.228;37.632;2023-04-25T04:05:02;18.48;;;14.02;;
72974;SDS011;61166;54.228;37.632;2023-04-25T04:07:30;18.70;;;16.93;;
72974;SDS011;61166;54.228;37.632;2023-04-25T04:09:56;18.20;;;16.30;;
72974;SDS011;61166;54.228;37.632;2023-04-25T04:12:23;17.15;;;15.07;;
72974;SDS011;61166;54.228;37.632;2023-04-25T04:14:49;20.52;;;14.13;;
72974;SDS011;61166;54.228;37.632;2023-04-25T04:17:16;17.83;;;15.93;;
72974;SDS011;61166;54.228;37.632;2023-04-25T04:19:42;19.93;;;15.83;;
72974;SDS011;61166;54.228;37.632;2023-04-25T04:22:09;16.98;;;14.50;;
72974;SDS011;61166;54.228;37.632;2023-04-25T04:24:35;21.08;;;17.48;;
72974;SDS011;61166;54.228;37.632;2023-04-25T04:27:02;21.88;;;17.05;;
72974;SDS011;61166;54.228;37.632;2023-04-25T04:29:28;22.85;;;18.88;;
72974;SDS011;61166;54.228;37.632;2023-04-25T04:31:55;22.07;;;17.27;;
72974;SDS011;61166;54.228;37.632;2023-04-25T04:34:21;20.30;;;16.98;;
72974;SDS011;61166;54.228;37.632;2023-04-25T04:36:48;20.35;;;17.80;;
72974;SDS011;61166;54.228;37.632;2023-04-25T04:39:14;19.60;;;17.60;;
72974;SDS011;61166;54.228;37.632;2023-04-25T04:41:41;21.02;;;18.95;;
72974;SDS011;61166;54.228;37.632;2023-04-25T04:44:07;18.17;;;16.47;;
72974;SDS011;61166;54.228;37.632;2023-04-25T04:46:34;16.20;;;13.90;;
72974;SDS011;61166;54.228;37.632;2023-04-25T04:49:01;18.42;;;16.52;;
72974;SDS011;61166;54.228;37.632;2023-04-25T04:51:27;18.20;;;14.13;;
72974;SDS011;61166;54.228;37.632;2023-04-25T04:53:55;19.38;;;14.40;;
72974;SDS011;61166;54.228;37.632;2023-04-25T04:56:21;23.80;;;13.97;;
72974;SDS011;61166;54.228;37.632;2023-04-25T04:58:48;18.73;;;14.57;;
72974;SDS011;61166;54.228;37.632;2023-04-25T05:01:14;20.10;;;13.95;;
72974;SDS011;61166;54.228;37.632;2023-04-25T05:03:41;15.95;;;13.98;;
72974;SDS011;61166;54.228;37.632;2023-04-25T05:06:08;16.88;;;13.77;;
72974;SDS011;61166;54.228;37.632;2023-04-25T05:08:34;17.57;;;15.70;;
72974;SDS011;61166;54.228;37.632;2023-04-25T05:11:01;17.58;;;15.82;;
72974;SDS011;61166;54.228;37.632;2023-04-25T05:13:27;20.08;;;16.55;;
72974;SDS011;61166;54.228;37.632;2023-04-25T05:15:54;21.20;;;12.40;;
72974;SDS011;61166;54.228;37.632;2023-04-25T05:18:20;23.05;;;16.38;;
72974;SDS011;61166;54.228;37.632;2023-04-25T05:20:49;22.13;;;15.30;;
72974;SDS011;61166;54.228;37.632;2023-04-25T05:23:15;20.67;;;14.85;;
72974;SDS011;61166;54.228;37.632;2023-04-25T05:25:42;20.60;;;13.52;;
72974;SDS011;61166;54.228;37.632;2023-04-25T05:28:08;19.17;;;13.00;;
72974;SDS011;61166;54.228;37.632;2023-04-25T05:30:35;22.48;;;15.60;;
72974;SDS011;61166;54.228;37.632;2023-04-25T05:33:01;24.97;;;15.03;;
72974;SDS011;61166;54.228;37.632;2023-04-25T05:35:28;23.00;;;14.80;;
72974;SDS011;61166;54.228;37.632;2023-04-25T05:37:55;26.13;;;15.73;;
72974;SDS011;61166;54.228;37.632;2023-04-25T05:40:21;23.15;;;15.70;;
72974;SDS011;61166;54.228;37.632;2023-04-25T05:42:48;29.00;;;16.33;;
72974;SDS011;61166;54.228;37.632;2023-04-25T05:45:14;36.87;;;16.90;;
72974;SDS011;61166;54.228;37.632;2023-04-25T05:47:41;29.70;;;16.80;;
72974;SDS011;61166;54.228;37.632;2023-04-25T05:50:07;21.08;;;15.00;;
72974;SDS011;61166;54.228;37.632;2023-04-25T05:52:34;21.17;;;15.18;;
72974;SDS011;61166;54.228;37.632;2023-04-25T05:55:00;24.02;;;13.27;;
72974;SDS011;61166;54.228;37.632;2023-04-25T05:57:27;31.67;;;14.30;;
72974;SDS011;61166;54.228;37.632;2023-04-25T05:59:54;25.13;;;14.05;;
72974;SDS011;61166;54.228;37.632;2023-04-25T06:02:20;19.40;;;14.50;;
72974;SDS011;61166;54.228;37.632;2023-04-25T06:04:49;28.02;;;13.60;;
72974;SDS011;61166;54.228;37.632;2023-04-25T06:07:17;20.38;;;13.15;;
72974;SDS011;61166;54.228;37.632;2023-04-25T06:09:44;27.53;;;13.70;;
72974;SDS011;61166;54.228;37.632;2023-04-25T06:12:10;21.20;;;14.93;;
72974;SDS011;61166;54.228;37.632;2023-04-25T06:14:37;18.25;;;13.73;;
72974;SDS011;61166;54.228;37.632;2023-04-25T06:17:04;24.48;;;14.32;;
72974;SDS011;61166;54.228;37.632;2023-04-25T06:19:30;25.50;;;15.50;;
72974;SDS011;61166;54.228;37.632;2023-04-25T06:21:57;32.23;;;16.77;;
72974;SDS011;61166;54.228;37.632;2023-04-25T06:24:23;35.75;;;18.75;;
72974;SDS011;61166;54.228;37.632;2023-04-25T06:26:50;30.00;;;15.63;;
72974;SDS011;61166;54.228;37.632;2023-04-25T06:29:16;22.40;;;14.13;;
72974;SDS011;61166;54.228;37.632;2023-04-25T06:31:43;21.17;;;12.82;;
72974;SDS011;61166;54.228;37.632;2023-04-25T06:34:10;25.03;;;15.67;;
72974;SDS011;61166;54.228;37.632;2023-04-25T06:36:36;18.83;;;12.68;;
72974;SDS011;61166;54.228;37.632;2023-04-25T06:39:03;14.63;;;10.77;;
72974;SDS011;61166;54.228;37.632;2023-04-25T06:41:29;15.25;;;10.45;;
72974;SDS011;61166;54.228;37.632;2023-04-25T06:43:56;17.02;;;11.43;;
72974;SDS011;61166;54.228;37.632;2023-04-25T06:46:22;21.70;;;12.03;;
72974;SDS011;61166;54.228;37.632;2023-04-25T06:48:49;25.35;;;12.52;;
72974;SDS011;61166;54.228;37.632;2023-04-25T06:51:16;20.85;;;12.05;;
72974;SDS011;61166;54.228;37.632;2023-04-25T06:53:42;21.95;;;13.23;;
72974;SDS011;61166;54.228;37.632;2023-04-25T06:56:10;21.75;;;14.30;;
72974;SDS011;61166;54.228;37.632;2023-04-25T06:58:36;23.87;;;12.90;;
72974;SDS011;61166;54.228;37.632;2023-04-25T07:01:03;12.82;;;8.95;;
72974;SDS011;61166;54.228;37.632;2023-04-25T07:03:29;11.57;;;9.32;;
72974;SDS011;61166;54.228;37.632;2023-04-25T07:05:56;15.82;;;8.88;;
72974;SDS011;61166;54.228;37.632;2023-04-25T07:08:23;14.50;;;10.75;;
72974;SDS011;61166;54.228;37.632;2023-04-25T07:10:49;16.87;;;9.83;;
72974;SDS011;61166;54.228;37.632;2023-04-25T07:13:16;11.95;;;8.20;;
72974;SDS011;61166;54.228;37.632;2023-04-25T07:15:43;11.20;;;6.68;;
72974;SDS011;61166;54.228;37.632;2023-04-25T07:18:10;15.80;;;7.68;;
72974;SDS011;61166;54.228;37.632;2023-04-25T07:20:36;9.80;;;7.82;;
72974;SDS011;61166;54.228;37.632;2023-04-25T07:23:03;13.50;;;8.27;;
72974;SDS011;61166;54.228;37.632;2023-04-25T07:25:29;11.98;;;8.23;;
72974;SDS011;61166;54.228;37.632;2023-04-25T07:27:56;7.88;;;7.10;;
72974;SDS011;61166;54.228;37.632;2023-04-25T07:30:22;6.10;;;4.40;;
72974;SDS011;61166;54.228;37.632;2023-04-25T07:32:49;6.75;;;6.10;;
72974;SDS011;61166;54.228;37.632;2023-04-25T07:35:16;6.00;;;4.20;;
72974;SDS011;61166;54.228;37.632;2023-04-25T07:37:43;5.30;;;4.32;;
72974;SDS011;61166;54.228;37.632;2023-04-25T07:40:10;6.40;;;4.93;;
72974;SDS011;61166;54.228;37.632;2023-04-25T07:42:37;5.60;;;3.97;;
72974;SDS011;61166;54.228;37.632;2023-04-25T07:45:03;7.03;;;5.22;;
72974;SDS011;61166;54.228;37.632;2023-04-25T07:47:30;6.33;;;4.80;;
72974;SDS011;61166;54.228;37.632;2023-04-25T07:49:56;13.18;;;5.72;;
72974;SDS011;61166;54.228;37.632;2023-04-25T07:52:23;8.05;;;6.40;;
72974;SDS011;61166;54.228;37.632;2023-04-25T07:54:50;11.55;;;7.50;;
72974;SDS011;61166;54.228;37.632;2023-04-25T07:57:16;12.95;;;8.50;;
72974;SDS011;61166;54.228;37.632;2023-04-25T07:59:43;14.63;;;6.93;;
72974;SDS011;61166;54.228;37.632;2023-04-25T08:02:10;15.65;;;9.88;;
72974;SDS011;61166;54.228;37.632;2023-04-25T08:04:36;9.45;;;6.13;;
72974;SDS011;61166;54.228;37.632;2023-04-25T08:07:03;8.35;;;5.38;;
72974;SDS011;61166;54.228;37.632;2023-04-25T08:09:30;6.97;;;5.03;;
72974;SDS011;61166;54.228;37.632;2023-04-25T08:11:56;10.23;;;5.00;;
72974;SDS011;61166;54.228;37.632;2023-04-25T08:14:23;9.90;;;5.70;;
72974;SDS011;61166;54.228;37.632;2023-04-25T08:16:49;8.65;;;4.70;;
72974;SDS011;61166;54.228;37.632;2023-04-25T08:19:16;7.30;;;4.68;;
72974;SDS011;61166;54.228;37.632;2023-04-25T08:21:42;9.57;;;4.85;;
72974;SDS011;61166;54.228;37.632;2023-04-25T08:24:08;6.97;;;4.27;;
72974;SDS011;61166;54.228;37.632;2023-04-25T08:26:35;7.35;;;5.05;;
72974;SDS011;61166;54.228;37.632;2023-04-25T08:29:01;8.27;;;5.47;;
72974;SDS011;61166;54.228;37.632;2023-04-25T08:31:30;6.45;;;4.78;;
72974;SDS011;61166;54.228;37.632;2023-04-25T08:33:57;10.43;;;5.10;;
72974;SDS011;61166;54.228;37.632;2023-04-25T08:36:23;8.27;;;4.73;;
72974;SDS011;61166;54.228;37.632;2023-04-25T08:39:05;5.32;;;4.00;;
72974;SDS011;61166;54.228;37.632;2023-04-25T08:41:31;6.40;;;4.50;;
72974;SDS011;61166;54.228;37.632;2023-04-25T08:43:58;6.57;;;3.83;;
72974;SDS011;61166;54.228;37.632;2023-04-25T08:46:27;5.15;;;4.63;;
72974;SDS011;61166;54.228;37.632;2023-04-25T08:48:54;4.60;;;3.97;;
72974;SDS011;61166;54.228;37.632;2023-04-25T08:51:28;6.03;;;3.92;;
72974;SDS011;61166;54.228;37.632;2023-04-25T08:54:11;11.65;;;7.07;;
72974;SDS011;61166;54.228;37.632;2023-04-25T08:57:00;8.45;;;5.28;;
72974;SDS011;61166;54.228;37.632;2023-04-25T08:59:28;7.22;;;5.00;;
72974;SDS011;61166;54.228;37.632;2023-04-25T09:01:55;6.47;;;4.37;;
72974;SDS011;61166;54.228;37.632;2023-04-25T09:04:23;6.15;;;4.47;;
72974;SDS011;61166;54.228;37.632;2023-04-25T09:06:49;7.18;;;4.45;;
72974;SDS011;61166;54.228;37.632;2023-04-25T09:09:16;6.47;;;4.32;;
72974;SDS011;61166;54.228;37.632;2023-04-25T09:11:42;5.45;;;4.10;;
72974;SDS011;61166;54.228;37.632;2023-04-25T09:14:16;9.13;;;4.73;;
72974;SDS011;61166;54.228;37.632;2023-04-25T09:19:26;7.75;;;4.63;;
72974;SDS011;61166;54.228;37.632;2023-04-25T09:22:06;8.25;;;4.30;;
72974;SDS011;61166;54.228;37.632;2023-04-25T09:24:40;7.22;;;4.40;;
72974;SDS011;61166;54.228;37.632;2023-04-25T09:27:10;8.63;;;3.80;;
72974;SDS011;61166;54.228;37.632;2023-04-25T09:29:38;6.50;;;3.95;;
72974;SDS011;61166;54.228;37.632;2023-04-25T09:32:22;5.97;;;3.95;;
72974;SDS011;61166;54.228;37.632;2023-04-25T09:34:56;11.20;;;5.35;;
72974;SDS011;61166;54.228;37.632;2023-04-25T09:37:27;10.95;;;5.65;;
72974;SDS011;61166;54.228;37.632;2023-04-25T09:39:58;5.63;;;4.07;;
72974;SDS011;61166;54.228;37.632;2023-04-25T09:42:26;6.68;;;4.13;;
72974;SDS011;61166;54.228;37.632;2023-04-25T09:44:54;6.35;;;4.25;;
72974;SDS011;61166;54.228;37.632;2023-04-25T09:47:23;10.50;;;5.85;;
72974;SDS011;61166;54.228;37.632;2023-04-25T09:49:51;8.30;;;4.25;;
72974;SDS011;61166;54.228;37.632;2023-04-25T09:52:22;6.80;;;4.47;;
72974;SDS011;61166;54.228;37.632;2023-04-25T09:54:52;9.15;;;5.60;;
72974;SDS011;61166;54.228;37.632;2023-04-25T09:57:19;6.65;;;3.83;;
72974;SDS011;61166;54.228;37.632;2023-04-25T09:59:54;5.32;;;4.15;;
72974;SDS011;61166;54.228;37.632;2023-04-25T10:02:22;9.05;;;4.50;;
72974;SDS011;61166;54.228;37.632;2023-04-25T10:04:51;9.80;;;5.47;;
72974;SDS011;61166;54.228;37.632;2023-04-25T10:07:19;7.93;;;4.55;;
72974;SDS011;61166;54.228;37.632;2023-04-25T10:09:49;14.77;;;9.40;;
72974;SDS011;61166;54.228;37.632;2023-04-25T10:12:20;18.05;;;5.07;;
72974;SDS011;61166;54.228;37.632;2023-04-25T10:14:48;6.25;;;4.32;;
72974;SDS011;61166;54.228;37.632;2023-04-25T10:17:14;6.20;;;4.10;;
72974;SDS011;61166;54.228;37.632;2023-04-25T10:19:41;8.57;;;3.13;;
72974;SDS011;61166;54.228;37.632;2023-04-25T10:22:17;11.00;;;3.88;;
72974;SDS011;61166;54.228;37.632;2023-04-25T10:24:44;5.07;;;3.22;;
72974;SDS011;61166;54.228;37.632;2023-04-25T10:27:12;8.30;;;4.10;;
72974;SDS011;61166;54.228;37.632;2023-04-25T10:29:38;8.77;;;4.40;;
72974;SDS011;61166;54.228;37.632;2023-04-25T10:32:05;10.35;;;5.72;;
72974;SDS011;61166;54.228;37.632;2023-04-25T10:34:44;8.60;;;4.28;;
72974;SDS011;61166;54.228;37.632;2023-04-25T10:37:11;6.00;;;3.55;;
72974;SDS011;61166;54.228;37.632;2023-04-25T10:39:40;5.57;;;3.20;;
72974;SDS011;61166;54.228;37.632;2023-04-25T10:42:06;10.23;;;4.83;;
72974;SDS011;61166;54.228;37.632;2023-04-25T10:44:33;9.88;;;4.28;;
72974;SDS011;61166;54.228;37.632;2023-04-25T10:47:00;8.23;;;4.28;;
72974;SDS011;61166;54.228;37.632;2023-04-25T10:54:57;8.87;;;3.83;;
72974;SDS011;61166;54.228;37.632;2023-04-25T10:57:30;8.52;;;4.40;;
72974;SDS011;61166;54.228;37.632;2023-04-25T11:00:05;7.97;;;4.60;;
72974;SDS011;61166;54.228;37.632;2023-04-25T11:05:19;10.13;;;4.93;;
72974;SDS011;61166;54.228;37.632;2023-04-25T11:07:50;10.27;;;4.73;;
72974;SDS011;61166;54.228;37.632;2023-04-25T11:10:32;10.20;;;5.28;;
72974;SDS011;61166;54.228;37.632;2023-04-25T11:12:59;10.75;;;5.22;;
72974;SDS011;61166;54.228;37.632;2023-04-25T11:15:25;7.15;;;4.65;;
72974;SDS011;61166;54.228;37.632;2023-04-25T11:17:52;9.75;;;4.72;;
72974;SDS011;61166;54.228;37.632;2023-04-25T11:20:19;9.60;;;4.73;;
72974;SDS011;61166;54.228;37.632;2023-04-25T11:22:46;8.68;;;4.75;;
72974;SDS011;61166;54.228;37.632;2023-04-25T11:25:13;6.63;;;4.80;;
72974;SDS011;61166;54.228;37.632;2023-04-25T11:27:52;7.88;;;4.93;;
72974;SDS011;61166;54.228;37.632;2023-04-25T11:30:19;10.30;;;4.47;;
72974;SDS011;61166;54.228;37.632;2023-04-25T11:32:46;8.10;;;4.57;;
72974;SDS011;61166;54.228;37.632;2023-04-25T11:35:13;10.02;;;4.50;;
72974;SDS011;61166;54.228;37.632;2023-04-25T11:37:39;11.55;;;4.70;;
72974;SDS011;61166;54.228;37.632;2023-04-25T11:40:06;7.10;;;5.10;;
72974;SDS011;61166;54.228;37.632;2023-04-25T11:42:33;9.85;;;5.65;;
72974;SDS011;61166;54.228;37.632;2023-04-25T11:45:00;8.97;;;5.60;;
72974;SDS011;61166;54.228;37.632;2023-04-25T11:47:30;11.73;;;7.35;;
72974;SDS011;61166;54.228;37.632;2023-04-25T11:50:00;12.05;;;7.05;;
72974;SDS011;61166;54.228;37.632;2023-04-25T11:55:06;11.52;;;6.60;;
72974;SDS011;61166;54.228;37.632;2023-04-25T11:57:39;12.83;;;6.33;;
72974;SDS011;61166;54.228;37.632;2023-04-25T12:00:12;11.35;;;6.25;;
72974;SDS011;61166;54.228;37.632;2023-04-25T12:02:48;7.95;;;6.78;;
72974;SDS011;61166;54.228;37.632;2023-04-25T12:05:17;10.00;;;6.82;;
72974;SDS011;61166;54.228;37.632;2023-04-25T12:07:46;10.60;;;7.07;;
72974;SDS011;61166;54.228;37.632;2023-04-25T12:10:14;9.57;;;6.37;;
72974;SDS011;61166;54.228;37.632;2023-04-25T12:12:44;11.25;;;6.97;;
72974;SDS011;61166;54.228;37.632;2023-04-25T12:15:12;12.07;;;7.35;;
72974;SDS011;61166;54.228;37.632;2023-04-25T12:17:39;13.68;;;7.20;;
72974;SDS011;61166;54.228;37.632;2023-04-25T12:20:21;12.07;;;6.80;;
72974;SDS011;61166;54.228;37.632;2023-04-25T12:22:48;12.63;;;7.07;;
72974;SDS011;61166;54.228;37.632;2023-04-25T12:28:18;9.88;;;6.43;;
72974;SDS011;61166;54.228;37.632;2023-04-25T12:31:01;15.77;;;7.30;;
72974;SDS011;61166;54.228;37.632;2023-04-25T12:33:31;11.98;;;7.82;;
72974;SDS011;61166;54.228;37.632;2023-04-25T12:35:58;9.93;;;4.87;;
72974;SDS011;61166;54.228;37.632;2023-04-25T12:40:51;9.70;;;6.50;;
72974;SDS011;61166;54.228;37.632;2023-04-25T12:43:18;10.05;;;5.35;;
72974;SDS011;61166;54.228;37.632;2023-04-25T12:45:44;9.48;;;4.95;;
72974;SDS011;61166;54.228;37.632;2023-04-25T12:48:11;11.87;;;6.20;;
72974;SDS011;61166;54.228;37.632;2023-04-25T12:50:38;7.93;;;5.90;;
72974;SDS011;61166;54.228;37.632;2023-04-25T12:53:04;10.32;;;6.25;;
72974;SDS011;61166;54.228;37.632;2023-04-25T12:55:32;7.03;;;4.90;;
72974;SDS011;61166;54.228;37.632;2023-04-25T12:57:58;8.65;;;3.72;;
72974;SDS011;61166;54.228;37.632;2023-04-25T13:00:25;5.57;;;3.27;;
72974;SDS011;61166;54.228;37.632;2023-04-25T13:02:51;8.38;;;3.30;;
72974;SDS011;61166;54.228;37.632;2023-04-25T13:05:18;5.22;;;3.50;;
72974;SDS011;61166;54.228;37.632;2023-04-25T13:07:44;7.70;;;3.20;;
72974;SDS011;61166;54.228;37.632;2023-04-25T13:10:11;9.65;;;3.30;;
72974;SDS011;61166;54.228;37.632;2023-04-25T13:12:38;4.63;;;3.30;;
72974;SDS011;61166;54.228;37.632;2023-04-25T13:15:04;8.68;;;3.97;;
72974;SDS011;61166;54.228;37.632;2023-04-25T13:17:31;7.50;;;4.00;;
72974;SDS011;61166;54.228;37.632;2023-04-25T13:19:57;10.02;;;4.70;;
72974;SDS011;61166;54.228;37.632;2023-04-25T13:22:24;9.02;;;4.22;;
72974;SDS011;61166;54.228;37.632;2023-04-25T13:24:50;10.63;;;3.83;;
72974;SDS011;61166;54.228;37.632;2023-04-25T13:27:17;5.63;;;3.67;;
72974;SDS011;61166;54.228;37.632;2023-04-25T13:29:43;4.55;;;2.63;;
72974;SDS011;61166;54.228;37.632;2023-04-25T13:32:09;6.25;;;3.88;;
72974;SDS011;61166;54.228;37.632;2023-04-25T13:34:36;11.60;;;4.55;;
72974;SDS011;61166;54.228;37.632;2023-04-25T13:37:02;8.37;;;4.23;;
72974;SDS011;61166;54.228;37.632;2023-04-25T13:39:29;9.77;;;4.38;;
72974;SDS011;61166;54.228;37.632;2023-04-25T13:41:55;8.73;;;4.18;;
72974;SDS011;61166;54.228;37.632;2023-04-25T13:44:22;6.60;;;3.88;;
72974;SDS011;61166;54.228;37.632;2023-04-25T13:46:48;6.63;;;4.50;;
72974;SDS011;61166;54.228;37.632;2023-04-25T13:49:14;9.77;;;4.37;;
72974;SDS011;61166;54.228;37.632;2023-04-25T13:51:41;6.82;;;3.90;;
72974;SDS011;61166;54.228;37.632;2023-04-25T13:54:09;9.82;;;3.85;;
72974;SDS011;61166;54.228;37.632;2023-04-25T13:56:35;9.63;;;4.05;;
72974;SDS011;61166;54.228;37.632;2023-04-25T13:59:02;6.75;;;3.25;;
72974;SDS011;61166;54.228;37.632;2023-04-25T14:01:28;10.60;;;4.30;;
72974;SDS011;61166;54.228;37.632;2023-04-25T14:03:54;14.15;;;3.95;;
72974;SDS011;61166;54.228;37.632;2023-04-25T14:06:21;9.70;;;4.80;;
72974;SDS011;61166;54.228;37.632;2023-04-25T14:08:48;14.45;;;4.57;;
72974;SDS011;61166;54.228;37.632;2023-04-25T14:11:15;10.52;;;5.38;;
72974;SDS011;61166;54.228;37.632;2023-04-25T14:13:41;10.50;;;4.67;;
72974;SDS011;61166;54.228;37.632;2023-04-25T14:16:07;11.88;;;5.68;;
72974;SDS011;61166;54.228;37.632;2023-04-25T14:18:34;12.57;;;6.43;;
72974;SDS011;61166;54.228;37.632;2023-04-25T14:21:00;10.50;;;4.88;;
72974;SDS011;61166;54.228;37.632;2023-04-25T14:23:27;10.98;;;5.72;;
72974;SDS011;61166;54.228;37.632;2023-04-25T14:25:53;14.13;;;6.73;;
72974;SDS011;61166;54.228;37.632;2023-04-25T14:28:19;14.82;;;5.53;;
72974;SDS011;61166;54.228;37.632;2023-04-25T14:30:46;12.50;;;5.63;;
72974;SDS011;61166;54.228;37.632;2023-04-25T14:33:12;14.30;;;6.80;;
72974;SDS011;61166;54.228;37.632;2023-04-25T14:35:39;13.02;;;6.70;;
72974;SDS011;61166;54.228;37.632;2023-04-25T14:38:05;14.97;;;6.13;;
72974;SDS011;61166;54.228;37.632;2023-04-25T14:40:31;13.38;;;7.43;;